map of BUS home
BUS - Airport
Location
City:  Batumi, Ajaria, Georgia
Name:Batumi International Airport
ICAO:UGSB
IATA:BUS

Details
Type:Airport (Aerodrome, Airfield)
Use:Public/Civil, International (customs port of entry)
Latitude:4136'36"N (41.610000)
Longitude:4135'59"E (41.599700)
Elevation:108 ft (33 m)
Variation:6.64E (WMM2015 magnetic declination)
0.08 annual change
Runways:1
Longest:8202 × 148 ft (2500 × 45 m), paved

Time
Time Zone:UTC+3 (DST+4)

Weather
METAR:UGSB 210900Z VRB05KT CAVOK 13/M01 Q1019 NOSIG
TAF:UGSB 201700Z 2018/2118 12010KT CAVOK TX13/2111Z TN05/2102Z
TEMPO 2022/2107 13020KT

Related Locations
Nearby:
Farthest:GMR: 11137 mi / 17924 km
Mangareva [Totegegie], Gambier Islands, PF

Find:

   beyond  
but within

Other Information
Maps:
NOTAMs:
Links:
Sources:

  
  • flag of Georgia
  • flag of Ajaria
  

Airport Diagram

Airport diagram for BUS

Airport diagram PDF

Sectional Chart

Flight Planning
at skyvector.com

Satellite Image

Google Maps Satellite view

 

Copyright © 2004-2019 Karl L. Swartz. All rights reserved.
The Great Circle Mapper name and logo are trademarks of the Great Circle Mapper.
All other trademarks mentioned herein belong to their respective owners.
Please see credits for attibutions and further copyright information.

  Follow gcmap on Facebook Follow gcmap on Twitter Follow gcmap on Google+ GCmap on LinkedIn

hCard Microformat

Geo Microformat